sensor_id;sensor_type;location;lat;lon;timestamp;temperature;humidity
47765;DHT22;33529;49.242;8.670;2023-02-01T00:00:30;4.70;99.90
47765;DHT22;33529;49.242;8.670;2023-02-01T00:02:57;4.70;99.90
47765;DHT22;33529;49.242;8.670;2023-02-01T00:05:23;4.70;99.90
47765;DHT22;33529;49.242;8.670;2023-02-01T00:07:50;4.70;99.90
47765;DHT22;33529;49.242;8.670;2023-02-01T00:10:17;4.70;99.90
47765;DHT22;33529;49.242;8.670;2023-02-01T00:12:44;4.70;99.90
47765;DHT22;33529;49.242;8.670;2023-02-01T00:15:11;4.70;99.90
47765;DHT22;33529;49.242;8.670;2023-02-01T00:17:38;4.80;99.90
47765;DHT22;33529;49.242;8.670;2023-02-01T00:20:05;4.80;99.90
47765;DHT22;33529;49.242;8.670;2023-02-01T00:22:32;4.80;99.90
47765;DHT22;33529;49.242;8.670;2023-02-01T00:24:59;4.80;99.90
47765;DHT22;33529;49.242;8.670;2023-02-01T00:27:26;4.80;99.90
47765;DHT22;33529;49.242;8.670;2023-02-01T00:29:54;4.80;99.90
47765;DHT22;33529;49.242;8.670;2023-02-01T00:32:21;4.90;99.90
47765;DHT22;33529;49.242;8.670;2023-02-01T00:34:48;4.90;99.90
47765;DHT22;33529;49.242;8.670;2023-02-01T00:37:15;4.90;99.90
47765;DHT22;33529;49.242;8.670;2023-02-01T00:39:42;4.90;99.90
47765;DHT22;33529;49.242;8.670;2023-02-01T00:42:08;4.90;99.90
47765;DHT22;33529;49.242;8.670;2023-02-01T00:44:36;4.90;99.90
47765;DHT22;33529;49.242;8.670;2023-02-01T00:47:03;4.90;99.90
47765;DHT22;33529;49.242;8.670;2023-02-01T00:49:30;4.90;99.90
47765;DHT22;33529;49.242;8.670;2023-02-01T00:51:56;4.90;99.90
47765;DHT22;33529;49.242;8.670;2023-02-01T00:54:24;4.90;99.90
47765;DHT22;33529;49.242;8.670;2023-02-01T00:56:51;4.90;99.90
47765;DHT22;33529;49.242;8.670;2023-02-01T00:59:18;4.90;99.90
47765;DHT22;33529;49.242;8.670;2023-02-01T01:01:45;4.90;99.90
47765;DHT22;33529;49.242;8.670;2023-02-01T01:04:11;4.90;99.90
47765;DHT22;33529;49.242;8.670;2023-02-01T01:06:38;4.90;99.90
47765;DHT22;33529;49.242;8.670;2023-02-01T01:09:07;5.00;99.90
47765;DHT22;33529;49.242;8.670;2023-02-01T01:11:36;5.00;99.90
47765;DHT22;33529;49.242;8.670;2023-02-01T01:14:07;5.00;99.90
47765;DHT22;33529;49.242;8.670;2023-02-01T01:16:35;5.00;99.90
47765;DHT22;33529;49.242;8.670;2023-02-01T01:19:03;5.00;99.90
47765;DHT22;33529;49.242;8.670;2023-02-01T01:21:30;5.00;99.90
47765;DHT22;33529;49.242;8.670;2023-02-01T01:23:58;5.00;99.90
47765;DHT22;33529;49.242;8.670;2023-02-01T01:26:27;5.00;99.90
47765;DHT22;33529;49.242;8.670;2023-02-01T01:28:56;5.00;99.90
47765;DHT22;33529;49.242;8.670;2023-02-01T01:31:24;5.00;99.90
47765;DHT22;33529;49.242;8.670;2023-02-01T01:33:53;5.00;99.90
47765;DHT22;33529;49.242;8.670;2023-02-01T01:36:21;5.00;99.90
47765;DHT22;33529;49.242;8.670;2023-02-01T01:38:48;5.00;99.90
47765;DHT22;33529;49.242;8.670;2023-02-01T01:41:19;4.90;99.90
47765;DHT22;33529;49.242;8.670;2023-02-01T01:43:58;4.90;99.90
47765;DHT22;33529;49.242;8.670;2023-02-01T01:46:35;5.00;99.90
47765;DHT22;33529;49.242;8.670;2023-02-01T01:49:23;4.90;99.90
47765;DHT22;33529;49.242;8.670;2023-02-01T01:51:57;4.90;99.90
47765;DHT22;33529;49.242;8.670;2023-02-01T01:54:32;4.90;99.90
47765;DHT22;33529;49.242;8.670;2023-02-01T01:57:07;4.90;99.90
47765;DHT22;33529;49.242;8.670;2023-02-01T01:59:36;4.90;99.90
47765;DHT22;33529;49.242;8.670;2023-02-01T02:02:04;4.90;99.90
47765;DHT22;33529;49.242;8.670;2023-02-01T02:04:32;4.90;99.90
47765;DHT22;33529;49.242;8.670;2023-02-01T02:07:03;4.90;99.90
47765;DHT22;33529;49.242;8.670;2023-02-01T02:09:30;4.90;99.90
47765;DHT22;33529;49.242;8.670;2023-02-01T02:11:58;4.90;99.90
47765;DHT22;33529;49.242;8.670;2023-02-01T02:14:26;4.90;99.90
47765;DHT22;33529;49.242;8.670;2023-02-01T02:23:37;5.00;99.90
47765;DHT22;33529;49.242;8.670;2023-02-01T02:29:12;5.00;99.90
47765;DHT22;33529;49.242;8.670;2023-02-01T02:34:52;5.00;99.90
47765;DHT22;33529;49.242;8.670;2023-02-01T02:37:47;5.00;99.90
47765;DHT22;33529;49.242;8.670;2023-02-01T02:40:29;5.00;99.90
47765;DHT22;33529;49.242;8.670;2023-02-01T02:43:04;5.00;99.90
47765;DHT22;33529;49.242;8.670;2023-02-01T02:48:55;5.10;99.90
47765;DHT22;33529;49.242;8.670;2023-02-01T02:51:34;5.10;99.90
47765;DHT22;33529;49.242;8.670;2023-02-01T02:54:25;5.20;99.90
47765;DHT22;33529;49.242;8.670;2023-02-01T02:57:18;5.10;99.90
47765;DHT22;33529;49.242;8.670;2023-02-01T03:00:08;5.10;99.90
47765;DHT22;33529;49.242;8.670;2023-02-01T03:02:55;5.10;99.90
47765;DHT22;33529;49.242;8.670;2023-02-01T03:05:46;5.10;99.90
47765;DHT22;33529;49.242;8.670;2023-02-01T03:08:20;5.10;99.90
47765;DHT22;33529;49.242;8.670;2023-02-01T03:10:53;5.10;99.90
47765;DHT22;33529;49.242;8.670;2023-02-01T03:16:26;5.00;99.90
47765;DHT22;33529;49.242;8.670;2023-02-01T03:19:15;4.90;99.90
47765;DHT22;33529;49.242;8.670;2023-02-01T03:21:59;4.90;99.90
47765;DHT22;33529;49.242;8.670;2023-02-01T03:25:27;5.00;99.90
47765;DHT22;33529;49.242;8.670;2023-02-01T03:32:42;5.00;99.90
47765;DHT22;33529;49.242;8.670;2023-02-01T03:35:54;5.00;99.90
47765;DHT22;33529;49.242;8.670;2023-02-01T03:38:32;5.00;99.90
47765;DHT22;33529;49.242;8.670;2023-02-01T03:41:22;5.00;99.90
47765;DHT22;33529;49.242;8.670;2023-02-01T03:43:58;5.00;99.90
47765;DHT22;33529;49.242;8.670;2023-02-01T03:46:40;5.00;99.90
47765;DHT22;33529;49.242;8.670;2023-02-01T03:49:13;5.10;99.90
47765;DHT22;33529;49.242;8.670;2023-02-01T03:51:41;5.10;99.90
47765;DHT22;33529;49.242;8.670;2023-02-01T03:54:12;5.10;99.90
47765;DHT22;33529;49.242;8.670;2023-02-01T03:56:42;5.10;99.90
47765;DHT22;33529;49.242;8.670;2023-02-01T03:59:12;5.10;99.90
47765;DHT22;33529;49.242;8.670;2023-02-01T04:01:40;5.10;99.90
47765;DHT22;33529;49.242;8.670;2023-02-01T04:04:08;5.10;99.90
47765;DHT22;33529;49.242;8.670;2023-02-01T04:06:37;5.20;99.90
47765;DHT22;33529;49.242;8.670;2023-02-01T04:09:04;5.20;99.90
47765;DHT22;33529;49.242;8.670;2023-02-01T04:11:31;5.20;99.90
47765;DHT22;33529;49.242;8.670;2023-02-01T04:13:58;5.20;99.90
47765;DHT22;33529;49.242;8.670;2023-02-01T04:16:24;5.20;99.90
47765;DHT22;33529;49.242;8.670;2023-02-01T04:18:51;5.20;99.90
47765;DHT22;33529;49.242;8.670;2023-02-01T04:21:20;5.20;99.90
47765;DHT22;33529;49.242;8.670;2023-02-01T04:23:47;5.20;99.90
47765;DHT22;33529;49.242;8.670;2023-02-01T04:26:14;5.20;99.90
47765;DHT22;33529;49.242;8.670;2023-02-01T04:28:42;5.10;99.90
47765;DHT22;33529;49.242;8.670;2023-02-01T04:31:09;5.10;99.90
47765;DHT22;33529;49.242;8.670;2023-02-01T04:33:36;5.20;99.90
47765;DHT22;33529;49.242;8.670;2023-02-01T04:36:03;5.20;99.90
47765;DHT22;33529;49.242;8.670;2023-02-01T04:38:30;5.10;99.90
47765;DHT22;33529;49.242;8.670;2023-02-01T04:40:59;5.10;99.90
47765;DHT22;33529;49.242;8.670;2023-02-01T04:43:26;5.00;99.90
47765;DHT22;33529;49.242;8.670;2023-02-01T04:45:53;5.10;99.90
47765;DHT22;33529;49.242;8.670;2023-02-01T04:48:20;5.10;99.90
47765;DHT22;33529;49.242;8.670;2023-02-01T04:50:50;5.10;99.90
47765;DHT22;33529;49.242;8.670;2023-02-01T04:53:17;5.10;99.90
47765;DHT22;33529;49.242;8.670;2023-02-01T04:55:44;5.10;99.90
47765;DHT22;33529;49.242;8.670;2023-02-01T04:58:11;5.10;99.90
47765;DHT22;33529;49.242;8.670;2023-02-01T05:00:38;5.10;99.90
47765;DHT22;33529;49.242;8.670;2023-02-01T05:03:05;5.10;99.90
47765;DHT22;33529;49.242;8.670;2023-02-01T05:05:32;5.10;99.90
47765;DHT22;33529;49.242;8.670;2023-02-01T05:07:59;5.10;99.90
47765;DHT22;33529;49.242;8.670;2023-02-01T05:10:26;5.10;99.90
47765;DHT22;33529;49.242;8.670;2023-02-01T05:12:53;5.10;99.90
47765;DHT22;33529;49.242;8.670;2023-02-01T05:15:39;5.10;99.90
47765;DHT22;33529;49.242;8.670;2023-02-01T05:18:05;5.10;99.90
47765;DHT22;33529;49.242;8.670;2023-02-01T05:20:32;5.10;99.90
47765;DHT22;33529;49.242;8.670;2023-02-01T05:22:59;5.10;99.90
47765;DHT22;33529;49.242;8.670;2023-02-01T05:25:26;5.10;99.90
47765;DHT22;33529;49.242;8.670;2023-02-01T05:27:53;5.00;99.90
47765;DHT22;33529;49.242;8.670;2023-02-01T05:30:20;5.10;99.90
47765;DHT22;33529;49.242;8.670;2023-02-01T05:32:52;5.10;99.90
47765;DHT22;33529;49.242;8.670;2023-02-01T05:35:19;5.00;99.90
47765;DHT22;33529;49.242;8.670;2023-02-01T05:37:46;5.00;99.90
47765;DHT22;33529;49.242;8.670;2023-02-01T05:40:13;5.00;99.90
47765;DHT22;33529;49.242;8.670;2023-02-01T05:42:39;5.00;99.90
47765;DHT22;33529;49.242;8.670;2023-02-01T05:45:07;5.00;99.90
47765;DHT22;33529;49.242;8.670;2023-02-01T05:47:34;5.10;99.90
47765;DHT22;33529;49.242;8.670;2023-02-01T05:50:01;5.10;99.90
47765;DHT22;33529;49.242;8.670;2023-02-01T05:52:27;5.10;99.90
47765;DHT22;33529;49.242;8.670;2023-02-01T05:54:54;5.00;99.90
47765;DHT22;33529;49.242;8.670;2023-02-01T05:57:21;5.00;99.90
47765;DHT22;33529;49.242;8.670;2023-02-01T05:59:48;5.00;99.90
47765;DHT22;33529;49.242;8.670;2023-02-01T06:02:16;4.90;99.90
47765;DHT22;33529;49.242;8.670;2023-02-01T06:04:43;4.90;99.90
47765;DHT22;33529;49.242;8.670;2023-02-01T06:07:10;4.80;99.90
47765;DHT22;33529;49.242;8.670;2023-02-01T06:09:37;4.80;99.90
47765;DHT22;33529;49.242;8.670;2023-02-01T06:12:04;4.80;99.90
47765;DHT22;33529;49.242;8.670;2023-02-01T06:14:31;4.70;99.90
47765;DHT22;33529;49.242;8.670;2023-02-01T06:16:58;4.70;99.90
47765;DHT22;33529;49.242;8.670;2023-02-01T06:19:25;4.70;99.90
47765;DHT22;33529;49.242;8.670;2023-02-01T06:21:52;4.70;99.90
47765;DHT22;33529;49.242;8.670;2023-02-01T06:24:19;4.60;99.90
47765;DHT22;33529;49.242;8.670;2023-02-01T06:26:46;4.60;99.90
47765;DHT22;33529;49.242;8.670;2023-02-01T06:29:13;4.60;99.90
47765;DHT22;33529;49.242;8.670;2023-02-01T06:31:39;4.60;99.90
47765;DHT22;33529;49.242;8.670;2023-02-01T06:34:07;4.60;99.90
47765;DHT22;33529;49.242;8.670;2023-02-01T06:36:33;4.60;99.90
47765;DHT22;33529;49.242;8.670;2023-02-01T06:39:00;4.60;99.90
47765;DHT22;33529;49.242;8.670;2023-02-01T06:41:27;4.60;99.90
47765;DHT22;33529;49.242;8.670;2023-02-01T06:43:55;4.60;99.90
47765;DHT22;33529;49.242;8.670;2023-02-01T06:46:22;4.60;99.90
47765;DHT22;33529;49.242;8.670;2023-02-01T06:48:49;4.60;99.90
47765;DHT22;33529;49.242;8.670;2023-02-01T06:51:35;4.60;99.90
47765;DHT22;33529;49.242;8.670;2023-02-01T06:54:02;4.70;99.90
47765;DHT22;33529;49.242;8.670;2023-02-01T06:56:28;4.70;99.90
47765;DHT22;33529;49.242;8.670;2023-02-01T06:58:57;4.70;99.90
47765;DHT22;33529;49.242;8.670;2023-02-01T07:01:24;4.60;99.90
47765;DHT22;33529;49.242;8.670;2023-02-01T07:03:51;4.70;99.90
47765;DHT22;33529;49.242;8.670;2023-02-01T07:06:19;4.60;99.90
47765;DHT22;33529;49.242;8.670;2023-02-01T07:08:45;4.60;99.90
47765;DHT22;33529;49.242;8.670;2023-02-01T07:11:14;4.60;99.90
47765;DHT22;33529;49.242;8.670;2023-02-01T07:13:41;4.60;99.90
47765;DHT22;33529;49.242;8.670;2023-02-01T07:16:17;4.60;99.90
47765;DHT22;33529;49.242;8.670;2023-02-01T07:18:45;4.60;99.90
47765;DHT22;33529;49.242;8.670;2023-02-01T07:21:13;4.60;99.90
47765;DHT22;33529;49.242;8.670;2023-02-01T07:23:39;4.60;99.90
47765;DHT22;33529;49.242;8.670;2023-02-01T07:26:09;4.60;99.90
47765;DHT22;33529;49.242;8.670;2023-02-01T07:28:36;4.60;99.90
47765;DHT22;33529;49.242;8.670;2023-02-01T07:31:09;4.60;99.90
47765;DHT22;33529;49.242;8.670;2023-02-01T07:33:36;4.70;99.90
47765;DHT22;33529;49.242;8.670;2023-02-01T07:36:05;4.70;99.90
47765;DHT22;33529;49.242;8.670;2023-02-01T07:38:33;4.80;99.90
47765;DHT22;33529;49.242;8.670;2023-02-01T07:41:01;4.70;99.90
47765;DHT22;33529;49.242;8.670;2023-02-01T07:43:28;4.70;99.90
47765;DHT22;33529;49.242;8.670;2023-02-01T07:45:56;4.70;99.90
47765;DHT22;33529;49.242;8.670;2023-02-01T07:48:24;4.80;99.90
47765;DHT22;33529;49.242;8.670;2023-02-01T07:51:03;4.80;99.90
47765;DHT22;33529;49.242;8.670;2023-02-01T07:53:31;4.90;99.90
47765;DHT22;33529;49.242;8.670;2023-02-01T07:55:58;4.90;99.90
47765;DHT22;33529;49.242;8.670;2023-02-01T07:58:25;4.90;99.90
47765;DHT22;33529;49.242;8.670;2023-02-01T08:00:53;5.00;99.90
47765;DHT22;33529;49.242;8.670;2023-02-01T08:03:38;5.00;99.90
47765;DHT22;33529;49.242;8.670;2023-02-01T08:06:06;5.00;99.90
47765;DHT22;33529;49.242;8.670;2023-02-01T08:08:33;4.90;99.90
47765;DHT22;33529;49.242;8.670;2023-02-01T08:11:02;4.90;99.90
47765;DHT22;33529;49.242;8.670;2023-02-01T08:13:29;5.00;99.90
47765;DHT22;33529;49.242;8.670;2023-02-01T08:15:59;5.00;99.90
47765;DHT22;33529;49.242;8.670;2023-02-01T08:18:27;5.00;99.90
47765;DHT22;33529;49.242;8.670;2023-02-01T08:20:54;4.90;99.90
47765;DHT22;33529;49.242;8.670;2023-02-01T08:23:21;5.00;99.90
47765;DHT22;33529;49.242;8.670;2023-02-01T08:25:48;5.00;99.90
47765;DHT22;33529;49.242;8.670;2023-02-01T08:28:15;5.00;99.90
47765;DHT22;33529;49.242;8.670;2023-02-01T08:30:42;5.00;99.90
47765;DHT22;33529;49.242;8.670;2023-02-01T08:33:09;5.10;99.90
47765;DHT22;33529;49.242;8.670;2023-02-01T08:35:36;5.10;99.90
47765;DHT22;33529;49.242;8.670;2023-02-01T08:38:10;5.20;99.90
47765;DHT22;33529;49.242;8.670;2023-02-01T08:40:36;5.30;99.90
47765;DHT22;33529;49.242;8.670;2023-02-01T08:43:04;5.30;99.90
47765;DHT22;33529;49.242;8.670;2023-02-01T08:45:31;5.40;99.90
47765;DHT22;33529;49.242;8.670;2023-02-01T08:47:58;5.40;99.90
47765;DHT22;33529;49.242;8.670;2023-02-01T08:50:25;5.50;99.90
47765;DHT22;33529;49.242;8.670;2023-02-01T08:52:53;5.60;99.90
47765;DHT22;33529;49.242;8.670;2023-02-01T08:55:20;5.80;99.90
47765;DHT22;33529;49.242;8.670;2023-02-01T08:57:47;5.90;99.90
47765;DHT22;33529;49.242;8.670;2023-02-01T09:00:16;6.00;99.90
47765;DHT22;33529;49.242;8.670;2023-02-01T09:02:44;6.00;99.90
47765;DHT22;33529;49.242;8.670;2023-02-01T09:05:11;6.00;99.90
47765;DHT22;33529;49.242;8.670;2023-02-01T09:07:38;6.10;99.90
47765;DHT22;33529;49.242;8.670;2023-02-01T09:10:05;6.10;99.90
47765;DHT22;33529;49.242;8.670;2023-02-01T09:12:33;6.10;99.90
47765;DHT22;33529;49.242;8.670;2023-02-01T09:15:00;6.10;99.90
47765;DHT22;33529;49.242;8.670;2023-02-01T09:17:28;6.10;99.90
47765;DHT22;33529;49.242;8.670;2023-02-01T09:20:00;6.20;99.90
47765;DHT22;33529;49.242;8.670;2023-02-01T09:22:26;6.20;99.90
47765;DHT22;33529;49.242;8.670;2023-02-01T09:24:53;6.20;99.90
47765;DHT22;33529;49.242;8.670;2023-02-01T09:27:21;6.20;99.90
47765;DHT22;33529;49.242;8.670;2023-02-01T09:29:48;6.20;99.90
47765;DHT22;33529;49.242;8.670;2023-02-01T09:32:22;6.20;99.90
47765;DHT22;33529;49.242;8.670;2023-02-01T09:34:50;6.20;99.90
47765;DHT22;33529;49.242;8.670;2023-02-01T09:37:18;6.20;99.90
47765;DHT22;33529;49.242;8.670;2023-02-01T09:39:45;6.10;99.90
47765;DHT22;33529;49.242;8.670;2023-02-01T09:45:33;6.10;99.90
47765;DHT22;33529;49.242;8.670;2023-02-01T09:48:13;6.00;99.90
47765;DHT22;33529;49.242;8.670;2023-02-01T09:50:47;6.00;99.90
47765;DHT22;33529;49.242;8.670;2023-02-01T09:55:48;6.10;99.90
47765;DHT22;33529;49.242;8.670;2023-02-01T10:01:28;6.20;99.90
47765;DHT22;33529;49.242;8.670;2023-02-01T10:04:07;6.40;99.90
47765;DHT22;33529;49.242;8.670;2023-02-01T10:09:31;6.80;99.90
47765;DHT22;33529;49.242;8.670;2023-02-01T10:17:47;6.90;99.90
47765;DHT22;33529;49.242;8.670;2023-02-01T10:28:34;7.10;99.90
47765;DHT22;33529;49.242;8.670;2023-02-01T10:31:03;7.00;99.90
47765;DHT22;33529;49.242;8.670;2023-02-01T10:33:41;7.00;99.90
47765;DHT22;33529;49.242;8.670;2023-02-01T10:36:21;7.00;99.90
47765;DHT22;33529;49.242;8.670;2023-02-01T10:38:49;6.90;99.90
47765;DHT22;33529;49.242;8.670;2023-02-01T10:41:23;6.80;99.90
47765;DHT22;33529;49.242;8.670;2023-02-01T10:43:57;6.70;99.90
47765;DHT22;33529;49.242;8.670;2023-02-01T10:46:24;6.60;99.90
47765;DHT22;33529;49.242;8.670;2023-02-01T10:48:54;6.50;99.90
47765;DHT22;33529;49.242;8.670;2023-02-01T10:51:28;6.40;99.90
47765;DHT22;33529;49.242;8.670;2023-02-01T10:54:00;6.50;99.90
47765;DHT22;33529;49.242;8.670;2023-02-01T10:56:29;6.50;99.90
47765;DHT22;33529;49.242;8.670;2023-02-01T10:59:18;6.50;99.90
47765;DHT22;33529;49.242;8.670;2023-02-01T11:01:47;6.50;99.90
47765;DHT22;33529;49.242;8.670;2023-02-01T11:04:16;6.50;99.90
47765;DHT22;33529;49.242;8.670;2023-02-01T11:06:54;6.40;99.90
47765;DHT22;33529;49.242;8.670;2023-02-01T11:09:40;6.50;99.90
47765;DHT22;33529;49.242;8.670;2023-02-01T11:14:57;6.40;99.90
47765;DHT22;33529;49.242;8.670;2023-02-01T11:17:29;6.40;99.90
47765;DHT22;33529;49.242;8.670;2023-02-01T11:20:00;6.50;99.90
47765;DHT22;33529;49.242;8.670;2023-02-01T11:22:28;6.40;99.90
47765;DHT22;33529;49.242;8.670;2023-02-01T11:24:56;6.40;99.90
47765;DHT22;33529;49.242;8.670;2023-02-01T11:27:24;6.40;99.90
47765;DHT22;33529;49.242;8.670;2023-02-01T11:29:59;6.30;99.90
47765;DHT22;33529;49.242;8.670;2023-02-01T11:32:27;6.40;99.90
47765;DHT22;33529;49.242;8.670;2023-02-01T11:34:57;6.30;99.90
47765;DHT22;33529;49.242;8.670;2023-02-01T11:37:33;6.30;99.90
47765;DHT22;33529;49.242;8.670;2023-02-01T11:45:34;6.40;99.90
47765;DHT22;33529;49.242;8.670;2023-02-01T11:48:09;6.40;99.90
47765;DHT22;33529;49.242;8.670;2023-02-01T12:07:20;6.50;99.90
47765;DHT22;33529;49.242;8.670;2023-02-01T12:09:55;6.60;99.90
47765;DHT22;33529;49.242;8.670;2023-02-01T12:26:45;6.50;99.90
47765;DHT22;33529;49.242;8.670;2023-02-01T12:32:34;6.30;99.90
47765;DHT22;33529;49.242;8.670;2023-02-01T12:39:06;6.30;99.90
47765;DHT22;33529;49.242;8.670;2023-02-01T12:41:19;6.30;99.90
47765;DHT22;33529;49.242;8.670;2023-02-01T12:43:52;6.20;99.90
47765;DHT22;33529;49.242;8.670;2023-02-01T12:46:28;6.20;99.90
47765;DHT22;33529;49.242;8.670;2023-02-01T12:49:05;6.20;99.90
47765;DHT22;33529;49.242;8.670;2023-02-01T12:51:38;6.20;99.90
47765;DHT22;33529;49.242;8.670;2023-02-01T12:56:53;6.20;99.90
47765;DHT22;33529;49.242;8.670;2023-02-01T12:59:31;6.20;99.90
47765;DHT22;33529;49.242;8.670;2023-02-01T13:02:19;6.20;99.90
47765;DHT22;33529;49.242;8.670;2023-02-01T13:05:18;6.30;99.90
47765;DHT22;33529;49.242;8.670;2023-02-01T13:07:53;6.40;99.90
47765;DHT22;33529;49.242;8.670;2023-02-01T13:10:37;6.40;99.90
47765;DHT22;33529;49.242;8.670;2023-02-01T13:15:55;6.30;99.90
47765;DHT22;33529;49.242;8.670;2023-02-01T13:18:26;6.30;99.90
47765;DHT22;33529;49.242;8.670;2023-02-01T13:23:39;6.50;99.90
47765;DHT22;33529;49.242;8.670;2023-02-01T13:26:07;6.60;99.90
47765;DHT22;33529;49.242;8.670;2023-02-01T13:28:59;6.50;99.90
47765;DHT22;33529;49.242;8.670;2023-02-01T13:31:49;6.50;99.90
47765;DHT22;33529;49.242;8.670;2023-02-01T13:34:46;6.50;99.90
47765;DHT22;33529;49.242;8.670;2023-02-01T13:40:17;6.70;99.90
47765;DHT22;33529;49.242;8.670;2023-02-01T13:45:19;6.80;99.90
47765;DHT22;33529;49.242;8.670;2023-02-01T13:47:51;6.70;99.90
47765;DHT22;33529;49.242;8.670;2023-02-01T13:50:36;6.70;99.90
47765;DHT22;33529;49.242;8.670;2023-02-01T13:56:01;6.70;99.90
47765;DHT22;33529;49.242;8.670;2023-02-01T13:58:40;6.70;99.90
47765;DHT22;33529;49.242;8.670;2023-02-01T14:03:57;6.60;99.90
47765;DHT22;33529;49.242;8.670;2023-02-01T14:11:53;6.60;99.90
47765;DHT22;33529;49.242;8.670;2023-02-01T14:19:26;6.70;99.90
47765;DHT22;33529;49.242;8.670;2023-02-01T14:21:55;6.60;99.90
47765;DHT22;33529;49.242;8.670;2023-02-01T14:24:33;6.70;99.90
47765;DHT22;33529;49.242;8.670;2023-02-01T14:29:43;6.70;99.90
47765;DHT22;33529;49.242;8.670;2023-02-01T14:58:44;6.60;99.90
47765;DHT22;33529;49.242;8.670;2023-02-01T15:01:24;6.60;99.90
47765;DHT22;33529;49.242;8.670;2023-02-01T15:09:15;6.60;99.90
47765;DHT22;33529;49.242;8.670;2023-02-01T15:12:04;6.70;99.90
47765;DHT22;33529;49.242;8.670;2023-02-01T15:14:40;6.70;99.90
47765;DHT22;33529;49.242;8.670;2023-02-01T15:17:25;6.70;99.90
47765;DHT22;33529;49.242;8.670;2023-02-01T15:22:34;6.60;99.90
47765;DHT22;33529;49.242;8.670;2023-02-01T15:25:02;6.60;99.90
47765;DHT22;33529;49.242;8.670;2023-02-01T15:27:31;6.60;99.90
47765;DHT22;33529;49.242;8.670;2023-02-01T15:30:08;6.60;99.90
47765;DHT22;33529;49.242;8.670;2023-02-01T15:32:42;6.60;99.90
47765;DHT22;33529;49.242;8.670;2023-02-01T15:35:32;6.60;99.90
47765;DHT22;33529;49.242;8.670;2023-02-01T15:41:14;6.60;99.90
47765;DHT22;33529;49.242;8.670;2023-02-01T15:46:34;6.60;99.90
47765;DHT22;33529;49.242;8.670;2023-02-01T15:49:03;6.70;99.90
47765;DHT22;33529;49.242;8.670;2023-02-01T15:51:31;6.70;99.90
47765;DHT22;33529;49.242;8.670;2023-02-01T15:54:04;6.70;99.90
47765;DHT22;33529;49.242;8.670;2023-02-01T15:56:38;6.60;99.90
47765;DHT22;33529;49.242;8.670;2023-02-01T15:59:13;6.60;99.90
47765;DHT22;33529;49.242;8.670;2023-02-01T16:01:41;6.60;99.90
47765;DHT22;33529;49.242;8.670;2023-02-01T16:04:19;6.60;99.90
47765;DHT22;33529;49.242;8.670;2023-02-01T16:06:52;6.60;99.90
47765;DHT22;33529;49.242;8.670;2023-02-01T16:09:22;6.60;99.90
47765;DHT22;33529;49.242;8.670;2023-02-01T16:14:24;6.60;99.90
47765;DHT22;33529;49.242;8.670;2023-02-01T16:16:53;6.60;99.90
47765;DHT22;33529;49.242;8.670;2023-02-01T16:19:20;6.60;99.90
47765;DHT22;33529;49.242;8.670;2023-02-01T16:21:47;6.60;99.90
47765;DHT22;33529;49.242;8.670;2023-02-01T16:24:14;6.60;99.90
47765;DHT22;33529;49.242;8.670;2023-02-01T16:26:41;6.60;99.90
47765;DHT22;33529;49.242;8.670;2023-02-01T16:29:08;6.60;99.90
47765;DHT22;33529;49.242;8.670;2023-02-01T16:31:37;6.60;99.90
47765;DHT22;33529;49.242;8.670;2023-02-01T16:34:05;6.60;99.90
47765;DHT22;33529;49.242;8.670;2023-02-01T16:36:33;6.60;99.90
47765;DHT22;33529;49.242;8.670;2023-02-01T16:39:01;6.50;99.90
47765;DHT22;33529;49.242;8.670;2023-02-01T16:41:29;6.50;99.90
47765;DHT22;33529;49.242;8.670;2023-02-01T16:43:56;6.50;99.90
47765;DHT22;33529;49.242;8.670;2023-02-01T16:46:25;6.60;99.90
47765;DHT22;33529;49.242;8.670;2023-02-01T16:48:57;6.60;99.90
47765;DHT22;33529;49.242;8.670;2023-02-01T16:51:29;6.60;99.90
47765;DHT22;33529;49.242;8.670;2023-02-01T16:53:59;6.50;99.90
47765;DHT22;33529;49.242;8.670;2023-02-01T16:56:31;6.50;99.90
47765;DHT22;33529;49.242;8.670;2023-02-01T16:58:59;6.50;99.90
47765;DHT22;33529;49.242;8.670;2023-02-01T17:01:27;6.50;99.90
47765;DHT22;33529;49.242;8.670;2023-02-01T17:03:54;6.50;99.90
47765;DHT22;33529;49.242;8.670;2023-02-01T17:06:24;6.40;99.90
47765;DHT22;33529;49.242;8.670;2023-02-01T17:08:54;6.40;99.90
47765;DHT22;33529;49.242;8.670;2023-02-01T17:11:21;6.50;99.90
47765;DHT22;33529;49.242;8.670;2023-02-01T17:13:50;6.50;99.90
47765;DHT22;33529;49.242;8.670;2023-02-01T17:16:30;6.50;99.90
47765;DHT22;33529;49.242;8.670;2023-02-01T17:19:03;6.40;99.90
47765;DHT22;33529;49.242;8.670;2023-02-01T17:21:45;6.30;99.90
47765;DHT22;33529;49.242;8.670;2023-02-01T17:24:14;6.30;99.90
47765;DHT22;33529;49.242;8.670;2023-02-01T17:26:41;6.30;99.90
47765;DHT22;33529;49.242;8.670;2023-02-01T17:29:12;6.30;99.90
47765;DHT22;33529;49.242;8.670;2023-02-01T17:31:42;6.30;99.90
47765;DHT22;33529;49.242;8.670;2023-02-01T17:34:11;6.30;99.90
47765;DHT22;33529;49.242;8.670;2023-02-01T17:36:38;6.30;99.90
47765;DHT22;33529;49.242;8.670;2023-02-01T17:39:08;6.40;99.90
47765;DHT22;33529;49.242;8.670;2023-02-01T17:41:36;6.40;99.90
47765;DHT22;33529;49.242;8.670;2023-02-01T17:44:03;6.40;99.90
47765;DHT22;33529;49.242;8.670;2023-02-01T17:46:31;6.40;99.90
47765;DHT22;33529;49.242;8.670;2023-02-01T17:48:58;6.40;99.90
47765;DHT22;33529;49.242;8.670;2023-02-01T17:51:26;6.40;99.90
47765;DHT22;33529;49.242;8.670;2023-02-01T17:53:53;6.40;99.90
47765;DHT22;33529;49.242;8.670;2023-02-01T17:56:23;6.40;99.90
47765;DHT22;33529;49.242;8.670;2023-02-01T17:58:50;6.30;99.90
47765;DHT22;33529;49.242;8.670;2023-02-01T18:01:19;6.40;99.90
47765;DHT22;33529;49.242;8.670;2023-02-01T18:03:47;6.40;99.90
47765;DHT22;33529;49.242;8.670;2023-02-01T18:06:18;6.40;99.90
47765;DHT22;33529;49.242;8.670;2023-02-01T18:08:46;6.40;99.90
47765;DHT22;33529;49.242;8.670;2023-02-01T18:11:16;6.40;99.90
47765;DHT22;33529;49.242;8.670;2023-02-01T18:13:44;6.40;99.90
47765;DHT22;33529;49.242;8.670;2023-02-01T18:16:20;6.40;99.90
47765;DHT22;33529;49.242;8.670;2023-02-01T18:18:48;6.40;99.90
47765;DHT22;33529;49.242;8.670;2023-02-01T18:21:17;6.40;99.90
47765;DHT22;33529;49.242;8.670;2023-02-01T18:23:47;6.50;99.90
47765;DHT22;33529;49.242;8.670;2023-02-01T18:26:16;6.40;99.90
47765;DHT22;33529;49.242;8.670;2023-02-01T18:28:43;6.50;99.90
47765;DHT22;33529;49.242;8.670;2023-02-01T18:31:22;6.50;99.90
47765;DHT22;33529;49.242;8.670;2023-02-01T18:33:51;6.50;99.90
47765;DHT22;33529;49.242;8.670;2023-02-01T18:36:18;6.50;99.90
47765;DHT22;33529;49.242;8.670;2023-02-01T18:38:45;6.50;99.90
47765;DHT22;33529;49.242;8.670;2023-02-01T18:41:15;6.40;99.90
47765;DHT22;33529;49.242;8.670;2023-02-01T18:43:42;6.40;99.90
47765;DHT22;33529;49.242;8.670;2023-02-01T18:46:10;6.40;99.90
47765;DHT22;33529;49.242;8.670;2023-02-01T18:48:38;6.40;99.90
47765;DHT22;33529;49.242;8.670;2023-02-01T18:51:05;6.40;99.90
47765;DHT22;33529;49.242;8.670;2023-02-01T18:53:32;6.40;99.90
47765;DHT22;33529;49.242;8.670;2023-02-01T18:55:59;6.50;99.90
47765;DHT22;33529;49.242;8.670;2023-02-01T18:58:26;6.50;99.90